createdAt,value
2022-09-17T00:00:48.899Z,5.57
2022-09-17T00:03:16.475Z,5.68
2022-09-17T00:05:43.875Z,5.43
2022-09-17T00:08:14.695Z,5.15
2022-09-17T00:10:43.381Z,5.85
2022-09-17T00:13:11.018Z,4.95
2022-09-17T00:15:42.530Z,5.18
2022-09-17T00:18:10.238Z,5.47
2022-09-17T00:20:44.368Z,4.78
2022-09-17T00:23:12.330Z,4.60
2022-09-17T00:25:43.516Z,4.88
2022-09-17T00:28:11.604Z,4.55
2022-09-17T00:30:45.769Z,4.28
2022-09-17T00:33:14.771Z,4.28
2022-09-17T00:35:42.292Z,3.90
2022-09-17T00:38:09.798Z,3.75
2022-09-17T00:40:37.371Z,4.28
2022-09-17T00:43:04.751Z,4.13
2022-09-17T00:45:32.358Z,3.60
2022-09-17T00:48:01.926Z,3.60
2022-09-17T00:50:36.961Z,3.78
2022-09-17T00:53:11.209Z,3.55
2022-09-17T00:55:55.050Z,3.45
2022-09-17T00:58:22.662Z,3.17
2022-09-17T01:00:50.008Z,3.00
2022-09-17T01:03:17.477Z,2.92
2022-09-17T01:05:47.515Z,3.13
2022-09-17T01:08:43.802Z,2.58
2022-09-17T01:11:53.029Z,2.60
2022-09-17T01:14:26.610Z,2.42
2022-09-17T01:16:54.207Z,2.45
2022-09-17T01:19:40.555Z,2.50
2022-09-17T01:22:09.768Z,2.70
2022-09-17T01:25:09.279Z,2.25
2022-09-17T01:27:58.074Z,2.45
2022-09-17T01:30:49.847Z,2.50
2022-09-17T01:33:32.605Z,2.20
2022-09-17T01:36:06.076Z,1.95
2022-09-17T01:38:38.406Z,2.60
2022-09-17T01:41:24.092Z,2.70
2022-09-17T01:44:10.497Z,2.45
2022-09-17T01:46:42.723Z,2.55
2022-09-17T01:49:10.092Z,2.40
2022-09-17T01:51:42.300Z,2.30
2022-09-17T01:54:32.838Z,3.28
2022-09-17T01:57:21.608Z,2.50
2022-09-17T01:59:55.552Z,2.70
2022-09-17T02:02:44.968Z,2.65
2022-09-17T02:05:16.665Z,2.58
2022-09-17T02:07:52.891Z,2.35
2022-09-17T02:10:22.317Z,2.50
2022-09-17T02:12:54.903Z,2.05
2022-09-17T02:15:25.113Z,2.10
2022-09-17T02:18:00.161Z,1.92
2022-09-17T02:20:33.695Z,2.00
2022-09-17T02:23:03.057Z,2.13
2022-09-17T02:25:44.782Z,1.90
2022-09-17T02:28:15.912Z,2.00
2022-09-17T02:30:43.507Z,2.13
2022-09-17T02:33:12.860Z,1.90
2022-09-17T02:35:40.258Z,1.83
2022-09-17T02:38:07.559Z,2.08
2022-09-17T02:40:49.556Z,2.10
2022-09-17T02:43:41.913Z,1.90
2022-09-17T02:46:12.285Z,1.85
2022-09-17T02:48:48.626Z,2.03
2022-09-17T02:51:53.723Z,1.80
2022-09-17T02:54:47.387Z,1.90
2022-09-17T02:57:20.543Z,1.80
2022-09-17T03:00:00.158Z,1.88
2022-09-17T03:02:48.523Z,1.65
2022-09-17T03:05:17.323Z,1.60
2022-09-17T03:07:44.654Z,1.45
2022-09-17T03:10:12.876Z,1.70
2022-09-17T03:12:41.087Z,1.80
2022-09-17T03:15:08.799Z,1.60
2022-09-17T03:17:36.172Z,1.60
2022-09-17T03:20:03.905Z,1.70
2022-09-17T03:22:31.223Z,1.73
2022-09-17T03:24:58.499Z,1.65
2022-09-17T03:27:25.799Z,2.00
2022-09-17T03:29:53.134Z,1.60
2022-09-17T03:32:20.517Z,1.70
2022-09-17T03:34:47.859Z,1.83
2022-09-17T03:37:15.202Z,1.63
2022-09-17T03:39:42.620Z,1.35
2022-09-17T03:42:09.916Z,1.60
2022-09-17T03:44:37.203Z,1.70
2022-09-17T03:47:04.667Z,1.42
2022-09-17T03:49:32.007Z,1.65
2022-09-17T03:51:59.718Z,1.60
2022-09-17T03:54:27.035Z,1.90
2022-09-17T03:56:54.367Z,1.60
2022-09-17T03:59:21.665Z,1.85
2022-09-17T04:01:49.150Z,1.70
2022-09-17T04:04:16.556Z,1.80
2022-09-17T04:06:43.843Z,2.05
2022-09-17T04:09:11.177Z,1.65
2022-09-17T04:11:38.523Z,1.60
2022-09-17T04:14:05.803Z,1.85
2022-09-17T04:16:33.176Z,1.60
2022-09-17T04:19:00.586Z,1.63
2022-09-17T04:21:28.162Z,1.83
2022-09-17T04:23:55.543Z,1.80
2022-09-17T04:26:22.860Z,2.10
2022-09-17T04:28:50.151Z,2.20
2022-09-17T04:31:17.471Z,1.80
2022-09-17T04:33:45.111Z,2.17
2022-09-17T04:36:12.388Z,2.58
2022-09-17T04:38:39.712Z,1.95
2022-09-17T04:41:07.649Z,2.17
2022-09-17T04:43:35.120Z,1.92
2022-09-17T04:46:02.523Z,2.38
2022-09-17T04:48:29.834Z,2.47
2022-09-17T04:50:57.191Z,2.30
2022-09-17T04:53:24.778Z,2.30
2022-09-17T04:55:52.183Z,2.20
2022-09-17T04:58:19.528Z,2.30
2022-09-17T05:00:46.887Z,2.25
2022-09-17T05:03:14.262Z,1.90
2022-09-17T05:05:41.578Z,2.28
2022-09-17T05:08:08.946Z,2.45
2022-09-17T05:10:36.251Z,2.20
2022-09-17T05:13:03.511Z,2.08
2022-09-17T05:15:30.796Z,2.05
2022-09-17T05:17:58.080Z,2.28
2022-09-17T05:20:25.420Z,1.98
2022-09-17T05:22:52.920Z,2.35
2022-09-17T05:25:24.102Z,2.00
2022-09-17T05:27:52.424Z,2.35
2022-09-17T05:30:19.824Z,1.88
2022-09-17T05:32:47.226Z,2.00
2022-09-17T05:35:14.614Z,2.70
2022-09-17T05:37:41.934Z,1.83
2022-09-17T05:40:10.311Z,2.03
2022-09-17T05:42:37.797Z,1.92
2022-09-17T05:45:05.908Z,1.90
2022-09-17T05:47:35.309Z,2.00
2022-09-17T05:50:02.676Z,2.00
2022-09-17T05:52:30.003Z,2.20
2022-09-17T05:54:57.302Z,2.10
2022-09-17T05:57:24.788Z,1.90
2022-09-17T05:59:52.079Z,2.08
2022-09-17T06:02:19.433Z,2.20
2022-09-17T06:04:46.826Z,2.20
2022-09-17T06:07:14.135Z,2.30
2022-09-17T06:09:41.439Z,2.30
2022-09-17T06:12:08.918Z,1.90
2022-09-17T06:14:36.231Z,2.45
2022-09-17T06:17:03.612Z,2.00
2022-09-17T06:19:30.897Z,1.90
2022-09-17T06:21:58.213Z,2.40
2022-09-17T06:24:26.062Z,2.20
2022-09-17T06:26:53.555Z,2.00
2022-09-17T06:29:21.100Z,2.05
2022-09-17T06:31:49.187Z,2.17
2022-09-17T06:34:17.031Z,1.90
2022-09-17T06:36:44.331Z,2.33
2022-09-17T06:39:11.924Z,1.90
2022-09-17T06:41:39.313Z,2.40
2022-09-17T06:44:06.705Z,2.33
2022-09-17T06:46:34.071Z,2.00
2022-09-17T06:49:01.504Z,2.00
2022-09-17T06:51:28.826Z,2.22
2022-09-17T06:53:56.184Z,1.95
2022-09-17T06:56:23.484Z,2.15
2022-09-17T06:58:50.810Z,2.20
2022-09-17T07:01:18.123Z,1.80
2022-09-17T07:03:45.598Z,2.00
2022-09-17T07:06:12.982Z,1.80
2022-09-17T07:08:41.713Z,1.70
2022-09-17T07:11:09.030Z,2.03
2022-09-17T07:13:36.400Z,1.95
2022-09-17T07:16:05.084Z,2.00
2022-09-17T07:18:32.580Z,2.50
2022-09-17T07:21:01.251Z,1.90
2022-09-17T07:23:37.756Z,2.08
2022-09-17T07:26:12.053Z,2.13
2022-09-17T07:28:40.767Z,1.80
2022-09-17T07:31:12.401Z,1.90
2022-09-17T07:33:42.801Z,1.90
2022-09-17T07:36:14.958Z,1.92
2022-09-17T07:38:42.344Z,1.70
2022-09-17T07:41:14.590Z,1.88
2022-09-17T07:43:42.485Z,1.90
2022-09-17T07:46:17.611Z,1.73
2022-09-17T07:48:46.326Z,1.63
2022-09-17T07:51:22.036Z,1.83
2022-09-17T07:53:57.885Z,1.83
2022-09-17T07:56:26.097Z,1.67
2022-09-17T07:58:53.535Z,1.80
2022-09-17T08:01:23.580Z,1.60
2022-09-17T08:03:52.087Z,1.77
2022-09-17T08:06:28.664Z,2.03
2022-09-17T08:08:57.060Z,1.60
2022-09-17T08:11:51.891Z,1.67
2022-09-17T08:14:15.920Z,1.60
2022-09-17T08:16:45.626Z,1.80
2022-09-17T08:19:13.083Z,1.73
2022-09-17T08:21:40.422Z,2.33
2022-09-17T08:24:07.928Z,1.50
2022-09-17T08:26:35.980Z,1.33
2022-09-17T08:29:03.299Z,1.90
2022-09-17T08:31:30.790Z,1.60
2022-09-17T08:33:58.267Z,1.48
2022-09-17T08:36:26.509Z,1.70
2022-09-17T08:38:54.487Z,1.83
2022-09-17T08:41:25.071Z,1.80
2022-09-17T08:44:07.394Z,1.45
2022-09-17T08:46:47.603Z,1.50
2022-09-17T08:49:40.192Z,1.58
2022-09-17T08:52:49.936Z,1.88
2022-09-17T08:55:33.954Z,1.80
2022-09-17T08:58:31.495Z,1.85
2022-09-17T09:01:03.302Z,1.33
2022-09-17T09:04:00.246Z,1.60
2022-09-17T09:06:30.103Z,2.53
2022-09-17T09:09:03.871Z,1.52
2022-09-17T09:11:31.380Z,1.77
2022-09-17T09:14:07.180Z,1.90
2022-09-17T09:16:34.967Z,1.98
2022-09-17T09:19:23.700Z,1.92
2022-09-17T09:22:12.247Z,1.63
2022-09-17T09:24:49.335Z,2.10
2022-09-17T09:27:45.551Z,1.77
2022-09-17T09:30:14.151Z,1.80
2022-09-17T09:33:14.340Z,1.73
2022-09-17T09:35:43.241Z,1.90
2022-09-17T09:38:25.778Z,2.00
2022-09-17T09:41:16.375Z,2.10
2022-09-17T09:44:06.044Z,2.10
2022-09-17T09:46:55.475Z,2.30
2022-09-17T09:49:38.166Z,1.92
2022-09-17T09:52:27.468Z,2.15
2022-09-17T09:55:21.347Z,2.17
2022-09-17T09:58:39.745Z,1.88
2022-09-17T10:01:15.078Z,2.22
2022-09-17T10:03:44.007Z,2.28
2022-09-17T10:06:11.428Z,1.70
2022-09-17T10:08:40.876Z,2.60
2022-09-17T10:11:17.084Z,2.42
2022-09-17T10:13:44.399Z,2.88
2022-09-17T10:16:19.703Z,2.45
2022-09-17T10:18:48.167Z,2.65
2022-09-17T10:21:35.308Z,3.65
2022-09-17T10:24:03.455Z,2.95
2022-09-17T10:26:35.136Z,3.45
2022-09-17T10:29:03.652Z,2.88
2022-09-17T10:32:00.774Z,2.22
2022-09-17T10:35:09.929Z,2.42
2022-09-17T10:37:48.228Z,2.55
2022-09-17T10:40:19.059Z,2.47
2022-09-17T10:42:46.855Z,2.83
2022-09-17T10:45:30.899Z,2.70
2022-09-17T10:47:59.766Z,2.47
2022-09-17T10:50:31.320Z,2.10
2022-09-17T10:53:00.632Z,2.55
2022-09-17T10:55:30.831Z,2.75
2022-09-17T10:58:07.422Z,2.30
2022-09-17T11:01:02.480Z,2.42
2022-09-17T11:06:42.602Z,2.45
2022-09-17T11:09:28.398Z,2.47
2022-09-17T11:12:14.119Z,1.90
2022-09-17T11:14:50.540Z,1.98
2022-09-17T11:17:39.373Z,1.50
2022-09-17T11:20:12.599Z,1.50
2022-09-17T11:23:15.214Z,1.30
2022-09-17T11:25:47.277Z,1.60
2022-09-17T11:28:53.884Z,1.50
2022-09-17T11:31:45.369Z,1.38
2022-09-17T11:34:18.503Z,1.38
2022-09-17T11:36:58.796Z,1.30
2022-09-17T11:39:39.290Z,1.50
2022-09-17T11:42:10.198Z,1.52
2022-09-17T11:44:41.197Z,1.30
2022-09-17T11:47:18.251Z,1.55
2022-09-17T11:49:46.805Z,1.50
2022-09-17T11:52:19.298Z,1.42
2022-09-17T11:54:51.288Z,1.38
2022-09-17T11:57:25.811Z,1.30
2022-09-17T11:59:59.322Z,1.83
2022-09-17T12:02:43.809Z,2.40
2022-09-17T12:05:28.907Z,1.35
2022-09-17T12:08:14.953Z,1.60
2022-09-17T12:10:53.067Z,1.52
2022-09-17T12:13:37.133Z,1.70
2022-09-17T12:16:26.998Z,1.38
2022-09-17T12:19:16.367Z,1.70
2022-09-17T12:21:54.799Z,1.85
2022-09-17T12:24:23.072Z,1.58
2022-09-17T12:27:27.622Z,1.58
2022-09-17T12:29:59.549Z,8.40
2022-09-17T12:32:43.435Z,2.15
2022-09-17T12:36:03.114Z,1.98
2022-09-17T12:38:44.354Z,1.58
2022-09-17T12:41:46.667Z,1.60
2022-09-17T12:44:36.068Z,1.65
2022-09-17T12:47:19.779Z,2.00
2022-09-17T12:50:14.403Z,1.83
2022-09-17T12:53:07.063Z,2.40
2022-09-17T12:56:03.854Z,2.40
2022-09-17T12:58:50.884Z,2.60
2022-09-17T13:01:40.173Z,1.92
2022-09-17T13:04:59.329Z,2.50
2022-09-17T13:07:41.959Z,2.22
2022-09-17T13:10:42.000Z,2.50
2022-09-17T13:13:33.718Z,2.35
2022-09-17T13:16:01.113Z,2.75
2022-09-17T13:18:41.681Z,2.55
2022-09-17T13:22:28.244Z,2.80
2022-09-17T13:25:22.502Z,2.70
2022-09-17T13:27:50.212Z,2.53
2022-09-17T13:30:18.478Z,2.97
2022-09-17T13:32:47.459Z,3.50
2022-09-17T13:35:14.811Z,2.95
2022-09-17T13:38:02.370Z,2.65
2022-09-17T13:40:33.338Z,2.70
2022-09-17T13:43:03.832Z,2.70
2022-09-17T13:45:32.189Z,2.88
2022-09-17T13:48:10.314Z,2.65
2022-09-17T13:50:44.107Z,2.50
2022-09-17T13:53:14.475Z,2.70
2022-09-17T13:55:51.449Z,2.13
2022-09-17T13:58:18.860Z,2.13
2022-09-17T14:00:56.380Z,2.05
2022-09-17T14:03:51.307Z,2.10
2022-09-17T14:06:19.560Z,2.33
2022-09-17T14:08:47.664Z,2.10
2022-09-17T14:11:24.151Z,1.55
2022-09-17T14:13:58.357Z,2.17
2022-09-17T14:16:29.133Z,1.42
2022-09-17T14:19:01.723Z,1.48
2022-09-17T14:21:33.281Z,1.45
2022-09-17T14:24:14.083Z,1.40
2022-09-17T14:27:09.622Z,1.65
2022-09-17T14:29:55.141Z,1.30
2022-09-17T14:32:30.069Z,1.33
2022-09-17T14:34:57.792Z,1.40
2022-09-17T14:37:25.121Z,1.27
2022-09-17T14:39:52.568Z,1.30
2022-09-17T14:42:34.078Z,1.35
2022-09-17T14:45:03.497Z,1.40
2022-09-17T14:47:30.892Z,1.52
2022-09-17T14:50:25.320Z,1.63
2022-09-17T14:52:53.570Z,1.60
2022-09-17T14:55:24.052Z,1.40
2022-09-17T14:57:55.800Z,1.40
2022-09-17T15:00:28.646Z,1.30
2022-09-17T15:02:59.441Z,1.30
2022-09-17T15:05:31.861Z,1.60
2022-09-17T15:08:13.029Z,1.63
2022-09-17T15:10:50.546Z,1.27
2022-09-17T15:13:57.247Z,1.17
2022-09-17T15:16:27.692Z,1.20
2022-09-17T15:18:55.543Z,1.17
2022-09-17T15:21:36.565Z,1.17
2022-09-17T15:24:39.117Z,1.00
2022-09-17T15:27:29.596Z,1.10
2022-09-17T15:29:58.765Z,0.95
2022-09-17T15:32:26.057Z,1.08
2022-09-17T15:35:11.581Z,1.00
2022-09-17T15:38:18.533Z,1.10
2022-09-17T15:40:38.652Z,1.92
2022-09-17T15:43:25.087Z,1.00
2022-09-17T15:45:52.412Z,1.23
2022-09-17T15:48:28.730Z,1.10
2022-09-17T15:50:57.501Z,1.30
2022-09-17T15:53:31.939Z,1.33
2022-09-17T15:58:35.976Z,8.15
2022-09-17T16:01:15.687Z,1.40
2022-09-17T16:03:45.742Z,1.20
2022-09-17T16:06:19.271Z,1.33
2022-09-17T16:08:57.135Z,1.70
2022-09-17T16:11:29.532Z,1.40
2022-09-17T16:13:59.388Z,1.20
2022-09-17T16:16:36.940Z,1.20
2022-09-17T16:19:04.911Z,1.17
2022-09-17T16:21:32.295Z,1.13
2022-09-17T16:23:59.594Z,1.30
2022-09-17T16:26:33.740Z,1.40
2022-09-17T16:29:05.926Z,1.17
2022-09-17T16:31:33.929Z,1.42
2022-09-17T16:34:01.479Z,0.98
2022-09-17T16:36:31.086Z,1.15
2022-09-17T16:38:59.167Z,1.10
2022-09-17T16:41:26.597Z,1.13
2022-09-17T16:43:54.029Z,0.82
2022-09-17T16:46:21.417Z,0.73
2022-09-17T16:48:51.879Z,0.70
2022-09-17T16:51:19.303Z,0.90
2022-09-17T16:53:46.645Z,1.00
2022-09-17T16:56:14.627Z,0.90
2022-09-17T16:58:42.497Z,0.90
2022-09-17T17:01:11.022Z,0.90
2022-09-17T17:03:38.642Z,1.05
2022-09-17T17:06:06.211Z,1.33
2022-09-17T17:08:33.849Z,1.50
2022-09-17T17:11:01.216Z,1.15
2022-09-17T17:13:28.803Z,1.17
2022-09-17T17:15:56.180Z,1.25
2022-09-17T17:18:24.442Z,1.05
2022-09-17T17:20:51.806Z,1.35
2022-09-17T17:23:19.115Z,1.60
2022-09-17T17:25:47.000Z,1.30
2022-09-17T17:28:14.990Z,1.50
2022-09-17T17:30:44.588Z,1.40
2022-09-17T17:33:11.895Z,1.50
2022-09-17T17:35:39.496Z,1.48
2022-09-17T17:38:06.807Z,1.58
2022-09-17T17:40:34.427Z,1.60
2022-09-17T17:43:01.828Z,1.52
2022-09-17T17:45:29.120Z,1.40
2022-09-17T17:47:56.421Z,1.30
2022-09-17T17:50:23.758Z,1.40
2022-09-17T17:52:53.568Z,1.70
2022-09-17T17:55:20.974Z,3.17
2022-09-17T17:57:48.284Z,1.55
2022-09-17T18:00:17.497Z,1.60
2022-09-17T18:02:44.986Z,1.33
2022-09-17T18:05:12.413Z,1.73
2022-09-17T18:07:39.761Z,1.20
2022-09-17T18:10:07.443Z,1.75
2022-09-17T18:12:36.964Z,1.60
2022-09-17T18:15:05.998Z,1.63
2022-09-17T18:17:35.646Z,1.58
2022-09-17T18:20:04.515Z,1.50
2022-09-17T18:22:31.821Z,1.40
2022-09-17T18:24:59.164Z,1.42
2022-09-17T18:27:26.465Z,1.55
2022-09-17T18:29:53.735Z,1.38
2022-09-17T18:32:21.023Z,2.00
2022-09-17T18:34:48.312Z,1.30
2022-09-17T18:37:15.755Z,1.52
2022-09-17T18:39:59.601Z,1.60
2022-09-17T18:42:27.230Z,1.45
2022-09-17T18:44:54.534Z,1.40
2022-09-17T18:47:21.854Z,1.42
2022-09-17T18:49:49.554Z,1.30
2022-09-17T18:52:16.828Z,1.73
2022-09-17T18:54:45.960Z,1.55
2022-09-17T18:57:13.669Z,1.30
2022-09-17T18:59:41.011Z,1.60
2022-09-17T19:02:11.507Z,1.60
2022-09-17T19:04:39.220Z,1.48
2022-09-17T19:07:06.735Z,1.55
2022-09-17T19:09:34.104Z,1.70
2022-09-17T19:12:01.544Z,1.73
2022-09-17T19:14:29.146Z,1.98
2022-09-17T19:16:56.608Z,1.88
2022-09-17T19:19:23.882Z,1.70
2022-09-17T19:21:51.216Z,1.50
2022-09-17T19:24:18.541Z,1.80
2022-09-17T19:26:50.650Z,2.00
2022-09-17T19:29:18.288Z,1.75
2022-09-17T19:31:45.691Z,1.63
2022-09-17T19:34:13.062Z,1.33
2022-09-17T19:36:40.398Z,2.00
2022-09-17T19:39:07.679Z,1.88
2022-09-17T19:41:36.321Z,1.70
2022-09-17T19:44:03.844Z,1.50
2022-09-17T19:46:32.303Z,1.60
2022-09-17T19:49:00.565Z,1.60
2022-09-17T19:51:29.666Z,1.52
2022-09-17T19:53:57.254Z,1.83
2022-09-17T19:56:25.907Z,1.80
2022-09-17T19:58:53.308Z,1.70
2022-09-17T20:01:20.778Z,1.77
2022-09-17T20:03:53.209Z,1.73
2022-09-17T20:06:24.077Z,1.60
2022-09-17T20:08:53.141Z,1.70
2022-09-17T20:11:22.185Z,1.67
2022-09-17T20:13:49.566Z,1.88
2022-09-17T20:16:21.092Z,1.90
2022-09-17T20:18:48.796Z,1.92
2022-09-17T20:21:24.661Z,2.20
2022-09-17T20:23:52.045Z,2.35
2022-09-17T20:26:19.564Z,1.83
2022-09-17T20:28:47.989Z,2.15
2022-09-17T20:31:20.435Z,1.60
2022-09-17T20:33:47.978Z,1.70
2022-09-17T20:36:16.980Z,1.60
2022-09-17T20:41:32.035Z,3.30
2022-09-17T20:43:59.391Z,2.60
2022-09-17T20:46:29.394Z,2.35
2022-09-17T20:48:58.157Z,2.03
2022-09-17T20:51:27.366Z,1.98
2022-09-17T20:53:54.850Z,1.95
2022-09-17T20:56:23.626Z,1.70
2022-09-17T20:59:18.847Z,1.92
2022-09-17T21:01:47.642Z,2.25
2022-09-17T21:04:16.403Z,2.28
2022-09-17T21:06:44.095Z,2.22
2022-09-17T21:09:15.853Z,2.30
2022-09-17T21:11:44.279Z,1.90
2022-09-17T21:14:11.947Z,3.72
2022-09-17T21:16:39.347Z,1.92
2022-09-17T21:19:07.775Z,2.05
2022-09-17T21:21:35.159Z,2.03
2022-09-17T21:24:03.573Z,1.77
2022-09-17T21:26:31.121Z,2.00
2022-09-17T21:28:58.586Z,1.77
2022-09-17T21:31:32.760Z,1.75
2022-09-17T21:34:02.179Z,2.92
2022-09-17T21:36:31.015Z,1.42
2022-09-17T21:39:00.592Z,1.30
2022-09-17T21:41:28.055Z,1.30
2022-09-17T21:43:55.474Z,1.00
2022-09-17T21:46:24.755Z,1.08
2022-09-17T21:48:56.841Z,1.00
2022-09-17T21:51:26.045Z,1.30
2022-09-17T21:53:54.979Z,1.20
2022-09-17T21:56:22.395Z,0.90
2022-09-17T21:58:54.640Z,0.90
2022-09-17T22:01:23.484Z,1.00
2022-09-17T22:03:50.996Z,0.95
2022-09-17T22:06:23.198Z,1.02
2022-09-17T22:08:51.416Z,0.95
2022-09-17T22:11:21.299Z,0.95
2022-09-17T22:13:56.492Z,1.10
2022-09-17T22:16:24.522Z,1.75
2022-09-17T22:18:51.980Z,0.80
2022-09-17T22:21:23.886Z,1.20
2022-09-17T22:23:52.358Z,1.00
2022-09-17T22:26:21.185Z,1.02
2022-09-17T22:28:49.187Z,1.10
2022-09-17T22:31:17.026Z,0.90
2022-09-17T22:33:46.743Z,0.90
2022-09-17T22:36:15.725Z,0.90
2022-09-17T22:38:46.743Z,1.20
2022-09-17T22:41:14.856Z,0.90
2022-09-17T22:43:42.143Z,1.10
2022-09-17T22:46:13.624Z,0.80
2022-09-17T22:48:41.172Z,1.00
2022-09-17T22:51:08.512Z,0.90
2022-09-17T22:53:36.535Z,1.00
2022-09-17T22:56:05.231Z,1.05
2022-09-17T22:58:32.667Z,1.20
2022-09-17T23:01:06.691Z,1.08
2022-09-17T23:03:34.186Z,1.40
2022-09-17T23:06:02.616Z,1.00
2022-09-17T23:08:29.949Z,5.45
2022-09-17T23:10:57.295Z,1.25
2022-09-17T23:13:24.606Z,1.00
2022-09-17T23:15:52.183Z,1.10
2022-09-17T23:18:19.628Z,1.20
2022-09-17T23:20:59.684Z,0.98
2022-09-17T23:23:27.269Z,1.17
2022-09-17T23:25:55.203Z,1.10
2022-09-17T23:28:22.699Z,1.30
2022-09-17T23:30:50.056Z,1.42
2022-09-17T23:33:17.408Z,1.10
2022-09-17T23:35:44.715Z,1.83
2022-09-17T23:38:12.029Z,1.05
2022-09-17T23:40:39.408Z,1.17
2022-09-17T23:43:06.812Z,1.10
2022-09-17T23:45:34.072Z,1.23
2022-09-17T23:48:01.580Z,1.10
2022-09-17T23:50:28.866Z,1.17
2022-09-17T23:52:56.167Z,1.73
2022-09-17T23:55:23.472Z,1.92
2022-09-17T23:57:50.778Z,1.10
